Главная страница
METAR-TAF:

METAR-TAF

Аэропорты :

Хельсинки-Вантаа

Хельсинки, Финляндия

широта: 60-19N, долгота: 024-58E, высота над уровнем моря: 51 м

Текущие метеонаблюдения

Эта сводка был подготовлена 14 минут назад, в 13:20 UTC
Ветер 13 Узел от южный
Температура 19°C
Влажность 56%
Давление 1011 hPa
Видимость 10 км и более
Отдельные облака на высоте 4000 фута

METAR: EFHK 141320Z 18013KT 9999 SCT040 19/10 Q1011 NOSIG

Время: 16:34 (13:34 UTC)

Прогноз

Эта сводка был подготовлена 2 часа и 11 минут назад, в 11:23 UTC
Прогноз действительный с 14-го 12 UTC до 15-го 12 UTC
Ветер 10 Узел от южный
Видимость 10 км и более
Нет облачности ниже 1500 м, и нет кучево-дождевой облачности
Вероятность 40%
С 14-го 12 UTC до 14-го 15 UTC
Отдельные облака на высоте 4500 фута, мощно-кучевые.
изменения
С 14-го 16 UTC до 14-го 18 UTC
Ветер 2 Узел переменных направлений

TAF: EFHK 141123Z 1412/1512 19010KT CAVOK PROB40 1412/1415 SCT045TCU BECMG 1416/1418 VRB02KT

Метеонаблюдения и прогнозы для более 4000 аэропортов (сводки METAR и TAF).

Имеющиеся станции представлены на карте желтыми и красными точками.

Чтобы увидеть название станции, наведите на нее мышь.

Затем щелкните, чтобы увидеть метеонаблюдения и метеопрогнозы.

Управление картой: чтобы увеличить масштаб, щелкните зеленые кнопки с черным крестиком; чтобы уменьшить масштаб, щелкните зеленую кнопку с тире; для просмотра соседних карт щелкайте зеленые стрелки.


METAR-TAF: